Time;durP1;ratioP1;P1;durP2;ratioP2;P2;SDS_P1;SDS_P2;PMS_P1;PMS_P2;Temp;Humidity;BMP_temperature;BMP_pressure;BME280_temperature;BME280_humidity;BME280_pressure;Samples;Min_cycle;Max_cycle;Signal;HPM_P1;HPM_P2
2021/08/02 00:00:13;;;;;;;2.70;1.27;;;16.90;99.90;;;;;;5038884;28;20101;-87
2021/08/02 00:03:00;;;;;;;4.53;1.30;;;16.90;99.90;;;;;;5056148;28;20104;-87
2021/08/02 00:05:26;;;;;;;2.65;1.17;;;17.00;99.90;;;;;;5038505;28;20098;-87
2021/08/02 00:08:00;;;;;;;1.75;0.95;;;17.20;99.90;;;;;;5038032;28;20021;-87
2021/08/02 00:10:32;;;;;;;3.10;1.13;;;17.20;99.90;;;;;;5055862;28;20021;-87
2021/08/02 00:13:10;;;;;;;4.57;1.35;;;17.20;99.90;;;;;;5038507;28;20032;-87
2021/08/02 00:15:36;;;;;;;1.80;1.10;;;17.30;99.90;;;;;;5056548;28;20013;-87
2021/08/02 00:18:03;;;;;;;2.20;1.50;;;17.30;99.90;;;;;;5038665;28;20032;-87
2021/08/02 00:20:32;;;;;;;3.53;1.42;;;17.40;99.90;;;;;;5038474;28;20393;-87
2021/08/02 00:23:04;;;;;;;2.95;1.30;;;17.30;99.90;;;;;;5038985;28;20025;-87
2021/08/02 00:25:30;;;;;;;3.22;1.35;;;17.20;99.90;;;;;;5037630;28;20032;-88
2021/08/02 00:27:56;;;;;;;1.20;1.10;;;17.30;99.90;;;;;;5038268;28;20025;-87
2021/08/02 00:30:24;;;;;;;4.20;1.20;;;17.40;99.90;;;;;;5056196;28;20021;-87
2021/08/02 00:32:51;;;;;;;4.95;1.30;;;17.40;99.90;;;;;;5037642;28;20066;-87
2021/08/02 00:35:17;;;;;;;3.47;1.20;;;17.40;99.90;;;;;;5038192;28;20451;-87
2021/08/02 00:37:42;;;;;;;2.70;1.15;;;17.30;99.90;;;;;;5038194;28;20052;-87
2021/08/02 00:40:24;;;;;;;2.50;1.30;;;17.30;99.90;;;;;;5037960;28;20511;-87
2021/08/02 00:43:00;;;;;;;3.15;1.48;;;17.30;99.90;;;;;;5038145;28;20025;-87
2021/08/02 00:45:34;;;;;;;4.07;1.42;;;17.30;99.90;;;;;;5038123;28;20019;-87
2021/08/02 00:48:00;;;;;;;;;;;17.20;99.90;;;;;;5038559;28;20163;-87
2021/08/02 00:50:29;;;;;;;2.30;1.20;;;17.30;99.90;;;;;;5038092;28;19909;-87
2021/08/02 00:53:05;;;;;;;2.30;1.10;;;17.20;99.90;;;;;;5037921;28;20028;-87
2021/08/02 00:55:35;;;;;;;1.98;1.20;;;17.20;99.90;;;;;;5036879;28;20083;-87
2021/08/02 00:58:07;;;;;;;8.02;1.48;;;17.20;99.90;;;;;;5054227;28;20029;-87
2021/08/02 01:00:33;;;;;;;5.22;1.52;;;17.20;99.90;;;;;;5035954;28;20040;-88
2021/08/02 01:03:04;;;;;;;3.30;1.20;;;17.10;99.90;;;;;;5035889;28;20087;-87
2021/08/02 01:05:33;;;;;;;4.53;1.30;;;17.10;99.90;;;;;;5035911;28;20396;-87
2021/08/02 01:08:03;;;;;;;4.68;1.40;;;17.20;99.90;;;;;;5035762;28;20029;-87
2021/08/02 01:10:32;;;;;;;3.15;1.40;;;17.10;99.90;;;;;;5053622;28;20086;-88
2021/08/02 01:13:02;;;;;;;1.38;1.10;;;17.10;99.90;;;;;;5035761;28;20032;-87
2021/08/02 01:15:29;;;;;;;3.67;1.40;;;17.10;99.90;;;;;;5035705;28;20448;-87
2021/08/02 01:17:56;;;;;;;3.45;1.48;;;17.10;99.90;;;;;;5035615;28;20473;-87
2021/08/02 01:20:23;;;;;;;2.90;1.27;;;17.00;99.90;;;;;;5035729;28;20392;-87
2021/08/02 01:22:49;;;;;;;3.83;1.40;;;16.90;99.90;;;;;;5053452;28;20101;-87
2021/08/02 01:25:34;;;;;;;4.70;1.48;;;16.90;99.90;;;;;;5053450;28;20028;-87
2021/08/02 01:28:14;;;;;;;4.20;1.50;;;16.80;99.90;;;;;;5035461;28;20365;-88
2021/08/02 01:30:46;;;;;;;3.17;1.40;;;16.80;99.90;;;;;;5035858;28;20115;-88
2021/08/02 01:33:17;;;;;;;3.03;1.13;;;16.70;99.90;;;;;;5035510;28;20057;-88
2021/08/02 01:35:44;;;;;;;4.10;1.20;;;16.60;99.90;;;;;;5035482;28;20042;-87
2021/08/02 01:38:13;;;;;;;2.17;1.40;;;16.60;99.90;;;;;;5052674;28;20028;-88
2021/08/02 01:40:40;;;;;;;4.15;1.20;;;16.60;99.90;;;;;;5020428;28;20029;-88
2021/08/02 01:43:08;;;;;;;3.38;1.35;;;16.70;99.90;;;;;;5019943;28;20389;-88
2021/08/02 01:46:01;;;;;;;4.20;1.38;;;16.70;99.90;;;;;;5023202;28;20032;-88
2021/08/02 01:48:44;;;;;;;4.25;1.17;;;16.70;99.90;;;;;;5021787;28;20417;-88
2021/08/02 01:51:21;;;;;;;3.05;1.38;;;16.60;99.90;;;;;;5016814;28;20022;-88
2021/08/02 01:54:00;;;;;;;2.53;1.38;;;16.70;99.90;;;;;;5016073;28;20135;-88
2021/08/02 01:56:34;;;;;;;5.22;1.10;;;16.70;99.90;;;;;;5015605;28;20052;-88
2021/08/02 01:59:13;;;;;;;4.18;1.30;;;16.70;99.90;;;;;;5015873;28;20032;-88
2021/08/02 02:01:48;;;;;;;2.10;1.33;;;16.50;99.90;;;;;;5015740;28;20021;-87
2021/08/02 02:04:16;;;;;;;2.42;1.50;;;16.80;99.90;;;;;;5015424;28;20041;-88
2021/08/02 02:06:45;;;;;;;8.77;1.75;;;16.90;99.90;;;;;;5015502;28;20171;-88
2021/08/02 02:09:16;;;;;;;2.08;1.10;;;16.90;99.90;;;;;;5016098;28;20477;-88
2021/08/02 02:11:46;;;;;;;3.80;1.48;;;16.90;99.90;;;;;;5015471;28;20477;-89
2021/08/02 02:14:12;;;;;;;3.72;1.30;;;17.20;99.90;;;;;;5015492;28;20029;-88
2021/08/02 02:16:41;;;;;;;4.40;1.52;;;17.20;99.90;;;;;;5033117;28;20033;-87
2021/08/02 02:19:09;;;;;;;3.78;1.50;;;17.20;99.90;;;;;;5015444;28;20064;-88
2021/08/02 02:21:36;;;;;;;4.07;1.50;;;17.10;99.90;;;;;;5015427;28;20040;-89
2021/08/02 02:24:03;;;;;;;5.13;1.20;;;17.10;99.90;;;;;;5015394;28;20029;-88
2021/08/02 02:26:32;;;;;;;3.58;1.40;;;17.20;99.90;;;;;;5015234;28;20040;-87
2021/08/02 02:29:05;;;;;;;3.90;1.17;;;17.20;99.90;;;;;;5015240;28;20116;-89
2021/08/02 02:31:34;;;;;;;5.78;1.20;;;17.20;99.90;;;;;;5015277;28;20028;-88
2021/08/02 02:34:03;;;;;;;2.05;1.10;;;17.10;99.90;;;;;;5033243;28;20018;-87
2021/08/02 02:36:29;;;;;;;3.30;1.00;;;17.10;99.90;;;;;;5015143;28;20068;-87
2021/08/02 02:38:56;;;;;;;4.18;1.30;;;17.00;99.90;;;;;;5021945;28;20055;-87
2021/08/02 02:41:23;;;;;;;2.13;1.20;;;17.00;99.90;;;;;;5035043;28;20025;-88
2021/08/02 02:43:50;;;;;;;6.88;1.88;;;16.90;99.90;;;;;;5035170;28;20032;-87
2021/08/02 02:46:21;;;;;;;9.20;1.40;;;16.80;99.90;;;;;;5053006;28;20048;-87
2021/08/02 02:48:48;;;;;;;3.45;1.63;;;16.70;99.90;;;;;;5035944;28;20511;-87
2021/08/02 02:51:15;;;;;;;2.67;1.10;;;16.70;99.90;;;;;;5038435;28;20021;-89
2021/08/02 02:53:42;;;;;;;2.35;1.30;;;16.80;99.90;;;;;;5038404;28;20022;-87
2021/08/02 02:56:14;;;;;;;5.13;1.38;;;16.80;99.90;;;;;;5038312;28;20025;-87
2021/08/02 02:58:41;;;;;;;2.33;1.25;;;16.80;99.90;;;;;;5038393;28;20025;-87
2021/08/02 03:01:09;;;;;;;4.28;1.23;;;16.70;99.90;;;;;;5038170;28;20025;-88
2021/08/02 03:03:39;;;;;;;5.10;1.30;;;16.60;99.90;;;;;;5038218;28;20056;-87
2021/08/02 03:06:05;;;;;;;4.88;1.42;;;16.50;99.90;;;;;;5038167;28;20025;-88
2021/08/02 03:08:34;;;;;;;1.88;1.27;;;16.60;99.90;;;;;;5037866;28;20055;-87
2021/08/02 03:11:02;;;;;;;4.60;1.15;;;16.60;99.90;;;;;;5038010;28;20380;-88
2021/08/02 03:13:27;;;;;;;4.07;1.20;;;16.70;99.90;;;;;;5037971;28;20017;-88
2021/08/02 03:15:53;;;;;;;3.83;1.17;;;16.70;99.90;;;;;;5056096;28;20021;-87
2021/08/02 03:18:19;;;;;;;2.33;1.20;;;16.80;99.90;;;;;;5056009;28;20025;-88
2021/08/02 03:20:45;;;;;;;2.50;1.05;;;17.00;99.90;;;;;;5037895;28;20056;-87
2021/08/02 03:23:20;;;;;;;3.50;1.30;;;17.10;99.90;;;;;;5037765;28;20032;-87
2021/08/02 03:26:08;;;;;;;2.22;1.13;;;17.20;99.90;;;;;;5037861;28;20025;-87
2021/08/02 03:28:53;;;;;;;4.15;1.35;;;17.10;99.90;;;;;;5037761;28;20472;-88
2021/08/02 03:31:30;;;;;;;2.08;1.10;;;17.10;99.90;;;;;;5055510;28;20025;-89
2021/08/02 03:33:57;;;;;;;3.08;1.10;;;17.00;99.90;;;;;;5037693;28;20049;-87
2021/08/02 03:36:23;;;;;;;4.18;1.30;;;17.10;99.90;;;;;;5037406;28;20032;-88
2021/08/02 03:38:51;;;;;;;2.67;1.20;;;17.00;99.90;;;;;;5037278;28;20080;-88
2021/08/02 03:41:21;;;;;;;3.63;1.10;;;16.90;99.90;;;;;;5037870;28;20049;-88
2021/08/02 03:43:48;;;;;;;1.95;1.10;;;17.00;99.90;;;;;;5037379;28;20025;-87
2021/08/02 03:46:15;;;;;;;3.70;1.10;;;17.10;99.90;;;;;;5055153;28;20029;-87
2021/08/02 03:48:41;;;;;;;2.65;1.55;;;17.10;99.90;;;;;;5037435;28;20377;-87
2021/08/02 03:51:06;;;;;;;3.03;1.13;;;17.00;99.90;;;;;;5040654;28;20441;-87
2021/08/02 03:53:49;;;;;;;2.85;1.20;;;16.90;99.90;;;;;;5041124;28;20045;-88
2021/08/02 03:56:16;;;;;;;2.22;1.10;;;17.10;99.90;;;;;;5045415;28;20014;-88
2021/08/02 03:58:42;;;;;;;2.92;1.30;;;17.10;99.90;;;;;;5045979;28;20029;-88
2021/08/02 04:01:09;;;;;;;3.80;1.17;;;17.10;99.90;;;;;;5038266;28;20087;-88
2021/08/02 04:03:35;;;;;;;3.17;1.10;;;17.00;99.90;;;;;;5037517;28;20032;-87
2021/08/02 04:06:01;;;;;;;4.57;1.33;;;16.90;99.90;;;;;;5037389;28;20484;-87
2021/08/02 04:08:27;;;;;;;3.97;1.08;;;17.10;99.90;;;;;;5036861;28;20060;-87
2021/08/02 04:10:54;;;;;;;4.18;1.42;;;17.10;99.90;;;;;;5036894;28;20017;-88
2021/08/02 04:13:19;;;;;;;1.77;1.23;;;16.90;99.90;;;;;;5036747;28;20476;-87
2021/08/02 04:15:46;;;;;;;2.72;1.20;;;16.90;99.90;;;;;;5036750;28;20017;-88
2021/08/02 04:18:12;;;;;;;3.60;0.95;;;16.80;99.90;;;;;;5054644;28;20481;-87
2021/08/02 04:20:39;;;;;;;5.03;1.20;;;16.90;99.90;;;;;;5036693;28;20201;-88
2021/08/02 04:23:04;;;;;;;2.92;1.33;;;17.10;99.90;;;;;;5054486;28;20021;-88
2021/08/02 04:25:30;;;;;;;2.78;1.00;;;17.00;99.90;;;;;;5036973;28;20029;-86
2021/08/02 04:27:56;;;;;;;5.45;1.27;;;17.10;99.90;;;;;;5036460;28;20025;-88
2021/08/02 04:30:22;;;;;;;4.88;1.00;;;17.00;99.90;;;;;;5036533;28;20025;-87
2021/08/02 04:32:48;;;;;;;8.73;1.10;;;17.00;99.90;;;;;;5054417;28;20021;-87
2021/08/02 04:35:14;;;;;;;5.15;1.38;;;17.00;99.90;;;;;;5036651;28;20029;-87
2021/08/02 04:37:40;;;;;;;4.53;1.27;;;16.90;99.90;;;;;;5036357;28;20123;-88
2021/08/02 04:40:07;;;;;;;3.40;1.30;;;16.80;99.90;;;;;;5037271;28;20095;-88
2021/08/02 04:42:34;;;;;;;4.60;1.10;;;16.80;99.90;;;;;;5016482;28;20436;-88
2021/08/02 04:45:00;;;;;;;3.67;1.40;;;16.90;99.90;;;;;;5016483;28;20385;-88
2021/08/02 04:47:26;;;;;;;5.60;1.30;;;16.90;99.90;;;;;;5034075;28;20029;-87
2021/08/02 04:49:52;;;;;;;5.30;1.23;;;16.90;99.90;;;;;;5016532;28;20032;-87
2021/08/02 04:52:19;;;;;;;3.00;1.10;;;17.00;99.90;;;;;;5016369;28;20067;-88
2021/08/02 04:54:44;;;;;;;4.97;1.25;;;16.90;99.90;;;;;;5016356;28;20026;-87
2021/08/02 04:57:10;;;;;;;3.45;1.52;;;16.90;99.90;;;;;;5016417;28;20022;-87
2021/08/02 04:59:36;;;;;;;5.82;1.13;;;16.90;99.90;;;;;;5016234;28;20079;-88
2021/08/02 05:02:02;;;;;;;3.72;1.00;;;16.80;99.90;;;;;;5016245;28;20029;-88
2021/08/02 05:04:27;;;;;;;1.98;1.20;;;16.80;99.90;;;;;;5033888;28;20032;-88
2021/08/02 05:06:53;;;;;;;3.03;1.10;;;17.00;99.90;;;;;;5016398;28;20025;-88
2021/08/02 05:09:19;;;;;;;5.57;1.30;;;16.90;99.90;;;;;;5016253;28;20036;-87
2021/08/02 05:11:44;;;;;;;1.80;1.10;;;16.90;99.90;;;;;;5015726;28;20026;-88
2021/08/02 05:14:10;;;;;;;2.78;1.08;;;16.80;99.90;;;;;;5016059;28;20017;-88
2021/08/02 05:16:36;;;;;;;2.17;1.10;;;16.80;99.90;;;;;;5016049;28;20083;-87
2021/08/02 05:19:02;;;;;;;4.13;1.40;;;16.80;99.90;;;;;;5016226;28;20037;-87
2021/08/02 05:21:27;;;;;;;3.17;1.15;;;16.90;99.90;;;;;;5015856;28;20388;-88
2021/08/02 05:23:53;;;;;;;3.22;1.20;;;16.70;99.90;;;;;;5019068;28;20021;-87
2021/08/02 05:26:19;;;;;;;6.28;1.13;;;16.60;99.90;;;;;;5032202;28;20061;-88
2021/08/02 05:28:45;;;;;;;4.47;1.20;;;16.80;99.90;;;;;;5015989;28;20037;-87
2021/08/02 05:31:10;;;;;;;3.50;1.13;;;16.80;99.90;;;;;;5015826;28;20109;-88
2021/08/02 05:33:36;;;;;;;3.72;1.30;;;16.80;99.90;;;;;;5033492;28;20043;-88
2021/08/02 05:36:03;;;;;;;4.63;1.00;;;16.90;99.90;;;;;;5033492;28;20031;-87
2021/08/02 05:38:30;;;;;;;3.60;1.27;;;17.00;99.90;;;;;;5018851;28;20049;-88
2021/08/02 05:40:57;;;;;;;2.78;1.10;;;17.00;99.90;;;;;;5035470;28;20033;-88
2021/08/02 05:43:24;;;;;;;1.83;0.90;;;17.10;99.90;;;;;;5035300;28;20032;-88
2021/08/02 05:45:50;;;;;;;2.75;1.08;;;17.10;99.90;;;;;;5035436;28;20075;-88
2021/08/02 05:48:16;;;;;;;2.15;1.00;;;16.90;99.90;;;;;;5035339;28;20025;-88
2021/08/02 05:50:42;;;;;;;3.20;1.05;;;16.80;99.90;;;;;;5035297;28;20590;-88
2021/08/02 05:53:07;;;;;;;2.38;1.20;;;16.80;99.90;;;;;;5035400;28;20384;-88
2021/08/02 05:55:33;;;;;;;1.77;0.93;;;16.90;99.90;;;;;;5035310;28;20107;-88
2021/08/02 05:57:59;;;;;;;2.03;1.10;;;17.00;99.90;;;;;;5035316;28;20029;-88
2021/08/02 06:00:25;;;;;;;1.48;0.90;;;17.00;99.90;;;;;;5035425;28;20025;-88
2021/08/02 06:02:51;;;;;;;1.77;1.10;;;17.10;99.90;;;;;;5038149;28;20028;-88
2021/08/02 06:05:17;;;;;;;1.60;0.98;;;17.10;99.90;;;;;;5038611;28;20025;-87
2021/08/02 06:07:43;;;;;;;3.80;0.98;;;17.20;99.90;;;;;;5042456;28;20021;-87
2021/08/02 06:10:12;;;;;;;3.88;0.95;;;17.30;99.90;;;;;;5044610;28;20100;-88
2021/08/02 06:12:38;;;;;;;3.22;1.23;;;17.30;99.90;;;;;;5038765;28;20047;-88
2021/08/02 06:15:05;;;;;;;5.25;1.10;;;17.30;99.90;;;;;;5053476;28;20025;-87
2021/08/02 06:17:30;;;;;;;2.05;1.00;;;17.20;99.90;;;;;;5035235;28;20075;-87
2021/08/02 06:19:56;;;;;;;5.10;1.23;;;17.10;99.90;;;;;;5035101;28;20476;-87
2021/08/02 06:22:22;;;;;;;2.63;1.10;;;17.10;99.90;;;;;;5035045;28;20029;-88
2021/08/02 06:24:47;;;;;;;2.17;1.05;;;17.10;99.90;;;;;;5055853;28;20464;-87
2021/08/02 06:27:13;;;;;;;1.50;1.00;;;17.00;99.90;;;;;;5038889;28;20396;-88
2021/08/02 06:29:39;;;;;;;2.85;1.02;;;17.10;99.90;;;;;;5040166;28;20025;-87
2021/08/02 06:32:06;;;;;;;6.32;1.20;;;17.10;99.90;;;;;;5039956;28;20025;-88
2021/08/02 06:34:32;;;;;;;3.13;1.00;;;17.20;99.90;;;;;;5039938;28;20029;-87
2021/08/02 06:36:58;;;;;;;3.88;1.08;;;17.20;99.90;;;;;;5041234;28;20102;-88
2021/08/02 06:39:23;;;;;;;2.95;0.98;;;17.20;99.90;;;;;;5041082;28;20045;-88
2021/08/02 06:41:49;;;;;;;1.25;0.90;;;17.30;99.90;;;;;;5039065;28;20024;-87
2021/08/02 06:44:15;;;;;;;3.13;1.00;;;17.40;99.90;;;;;;5038420;28;20056;-87
2021/08/02 06:46:41;;;;;;;2.80;0.98;;;17.30;99.90;;;;;;5056314;28;20100;-88
2021/08/02 06:49:06;;;;;;;2.80;0.95;;;17.40;99.90;;;;;;5038386;28;20032;-88
2021/08/02 06:51:32;;;;;;;5.85;1.13;;;17.50;99.90;;;;;;5038331;28;20539;-87
2021/08/02 06:53:58;;;;;;;2.75;1.00;;;17.70;99.90;;;;;;5038352;28;20017;-87
2021/08/02 06:56:24;;;;;;;3.53;0.98;;;17.90;99.90;;;;;;5039767;28;20024;-87
2021/08/02 06:58:51;;;;;;;2.03;1.10;;;17.80;99.90;;;;;;5040560;28;20033;-88
2021/08/02 07:01:17;;;;;;;3.97;1.10;;;17.70;99.90;;;;;;5057765;28;20025;-87
2021/08/02 07:03:43;;;;;;;3.03;1.10;;;17.80;99.90;;;;;;5039777;28;20380;-87
2021/08/02 07:06:09;;;;;;;3.30;1.00;;;17.90;99.90;;;;;;5039925;28;20028;-87
2021/08/02 07:08:38;;;;;;;1.85;0.82;;;17.90;99.90;;;;;;5039801;28;20023;-88
2021/08/02 07:11:06;;;;;;;5.25;1.10;;;18.00;99.90;;;;;;5040023;28;20021;-87
2021/08/02 07:13:31;;;;;;;3.08;1.05;;;18.10;99.90;;;;;;5039712;28;20484;-87
2021/08/02 07:16:00;;;;;;;3.85;1.30;;;18.30;99.90;;;;;;5039223;28;20018;-88
2021/08/02 07:18:26;;;;;;;2.28;1.05;;;18.30;99.90;;;;;;5039864;28;20027;-88
2021/08/02 07:20:52;;;;;;;3.13;0.98;;;18.30;99.90;;;;;;5039797;28;20032;-87
2021/08/02 07:23:17;;;;;;;2.38;1.20;;;18.30;99.90;;;;;;5057471;28;20385;-87
2021/08/02 07:25:46;;;;;;;2.53;0.85;;;18.30;99.90;;;;;;5039785;28;20056;-87
2021/08/02 07:28:11;;;;;;;1.42;0.93;;;18.30;99.90;;;;;;5039422;28;20063;-88
2021/08/02 07:30:37;;;;;;;1.70;1.10;;;18.40;99.90;;;;;;5039392;28;20029;-88
2021/08/02 07:33:03;;;;;;;4.38;1.13;;;18.20;99.90;;;;;;5056572;28;20029;-87
2021/08/02 07:35:29;;;;;;;2.33;0.80;;;18.40;99.90;;;;;;5038770;28;20032;-85
2021/08/02 07:37:55;;;;;;;3.45;1.17;;;18.50;99.90;;;;;;5039245;28;20047;-87
2021/08/02 07:40:21;;;;;;;4.15;0.82;;;18.60;99.90;;;;;;5038944;28;20548;-87
2021/08/02 07:42:46;;;;;;;2.53;0.82;;;18.70;99.90;;;;;;5039688;28;20053;-88
2021/08/02 07:45:12;;;;;;;2.05;1.05;;;18.80;99.90;;;;;;5056821;28;20021;-87
2021/08/02 07:47:38;;;;;;;6.05;1.20;;;18.70;99.90;;;;;;5038491;28;20373;-88
2021/08/02 07:50:05;;;;;;;2.20;0.85;;;18.90;99.90;;;;;;5038735;28;20029;-87
2021/08/02 07:52:32;;;;;;;1.55;0.82;;;19.10;99.90;;;;;;5039306;28;20021;-87
2021/08/02 07:54:58;;;;;;;1.38;0.73;;;19.20;99.90;;;;;;5038760;28;20404;-86
2021/08/02 07:57:24;;;;;;;2.08;0.90;;;19.00;99.90;;;;;;5022566;28;20032;-87
2021/08/02 07:59:50;;;;;;;1.10;0.80;;;19.10;99.90;;;;;;5038983;28;20024;-87
2021/08/02 08:02:15;;;;;;;3.22;1.33;;;19.00;99.90;;;;;;5038892;28;20123;-87
2021/08/02 08:04:41;;;;;;;3.05;1.00;;;18.80;99.90;;;;;;5038496;28;20082;-85
2021/08/02 08:07:07;;;;;;;2.90;1.20;;;18.70;99.90;;;;;;5038644;28;20040;-86
2021/08/02 08:09:33;;;;;;;2.28;1.10;;;18.90;99.90;;;;;;5041717;28;20075;-85
2021/08/02 08:11:59;;;;;;;6.15;0.98;;;19.00;99.90;;;;;;5047414;28;20025;-84
2021/08/02 08:14:25;;;;;;;2.72;0.90;;;19.10;99.90;;;;;;5043837;28;20025;-86
2021/08/02 08:16:51;;;;;;;1.35;0.77;;;19.00;99.90;;;;;;5022738;28;20036;-86
2021/08/02 08:19:16;;;;;;;1.80;0.88;;;19.00;99.90;;;;;;5038953;28;20033;-86
2021/08/02 08:21:42;;;;;;;1.77;0.93;;;19.10;99.90;;;;;;5037956;28;20070;-87
2021/08/02 08:24:08;;;;;;;2.13;1.15;;;19.10;99.90;;;;;;5038363;28;20032;-86
2021/08/02 08:26:37;;;;;;;4.15;1.00;;;19.10;99.90;;;;;;5056298;28;20025;-86
2021/08/02 08:29:04;;;;;;;3.33;1.10;;;18.80;99.90;;;;;;5037984;28;20032;-87
2021/08/02 08:31:29;;;;;;;2.20;1.00;;;19.10;99.90;;;;;;5056080;28;20484;-87
2021/08/02 08:33:56;;;;;;;2.58;1.00;;;19.30;99.90;;;;;;5038382;28;20028;-87
2021/08/02 08:36:22;;;;;;;5.15;1.30;;;19.30;99.90;;;;;;5038216;28;20028;-87
2021/08/02 08:38:48;;;;;;;1.83;0.95;;;19.20;99.90;;;;;;5037295;28;20045;-87
2021/08/02 08:41:20;;;;;;;2.45;1.20;;;19.50;99.90;;;;;;5056384;28;20029;-87
2021/08/02 08:43:49;;;;;;;3.33;1.30;;;19.80;99.90;;;;;;5038283;28;20025;-87
2021/08/02 08:46:18;;;;;;;3.50;1.00;;;20.30;99.90;;;;;;5037256;28;20111;-87
2021/08/02 08:48:43;;;;;;;2.20;1.10;;;20.50;99.90;;;;;;5037978;28;20028;-86
2021/08/02 08:51:12;;;;;;;2.20;0.90;;;20.50;99.90;;;;;;5038162;28;20033;-87
2021/08/02 08:53:38;;;;;;;1.95;0.90;;;20.70;99.90;;;;;;5055853;28;20036;-86
2021/08/02 08:56:04;;;;;;;3.35;1.05;;;21.00;99.90;;;;;;5038151;28;20362;-88
2021/08/02 08:58:30;;;;;;;2.78;0.90;;;21.30;99.90;;;;;;5055328;28;20096;-86
2021/08/02 09:01:01;;;;;;;4.85;1.05;;;21.30;99.90;;;;;;5056346;28;20070;-88
2021/08/02 09:03:28;;;;;;;3.63;1.20;;;21.50;99.90;;;;;;5038709;28;20052;-87
2021/08/02 09:06:04;;;;;;;2.40;1.00;;;21.40;99.90;;;;;;5037728;28;20496;-88
2021/08/02 09:08:29;;;;;;;2.33;1.20;;;20.70;99.90;;;;;;5037747;28;20025;-86
2021/08/02 09:10:57;;;;;;;3.17;1.02;;;20.70;99.90;;;;;;5055534;28;20092;-86
2021/08/02 09:13:34;;;;;;;4.78;0.95;;;21.00;99.90;;;;;;5038779;28;20025;-86
2021/08/02 09:16:15;;;;;;;3.53;1.02;;;21.10;99.90;;;;;;5037755;28;20056;-86
2021/08/02 09:18:44;;;;;;;4.13;0.80;;;21.20;99.90;;;;;;5037729;28;20025;-87
2021/08/02 09:21:11;;;;;;;1.48;0.80;;;21.30;99.90;;;;;;5037333;28;20045;-86
2021/08/02 09:23:51;;;;;;;3.05;1.80;;;21.20;99.90;;;;;;5037474;28;20029;-86
2021/08/02 09:26:27;;;;;;;1.98;0.80;;;20.80;99.90;;;;;;5037335;28;20560;-86
2021/08/02 09:28:53;;;;;;;3.35;0.88;;;21.00;99.90;;;;;;5038493;28;20064;-90
2021/08/02 09:31:19;;;;;;;1.50;0.90;;;20.80;99.90;;;;;;5039147;28;20024;-88
2021/08/02 09:33:47;;;;;;;1.48;0.85;;;21.10;99.90;;;;;;5037843;28;20025;-88
2021/08/02 09:36:13;;;;;;;3.45;2.10;;;21.50;99.90;;;;;;5037272;28;20384;-88
2021/08/02 09:38:39;;;;;;;3.05;1.00;;;21.80;99.90;;;;;;5035461;28;20036;-87
2021/08/02 09:41:05;;;;;;;3.45;0.90;;;21.80;99.90;;;;;;5018431;28;20026;-88
2021/08/02 09:43:35;;;;;;;1.60;0.85;;;22.20;99.90;;;;;;5018342;28;20112;-88
2021/08/02 09:46:04;;;;;;;4.40;2.65;;;22.50;99.90;;;;;;5017879;28;20022;-91
2021/08/02 09:48:39;;;;;;;1.23;0.70;;;22.60;99.90;;;;;;5002050;28;20033;-90
2021/08/02 09:51:14;;;;;;;2.10;0.90;;;22.20;99.90;;;;;;5017512;28;20028;-89
2021/08/02 09:53:45;;;;;;;1.40;0.65;;;22.20;99.90;;;;;;5018030;28;20472;-88
2021/08/02 09:56:19;;;;;;;3.25;1.27;;;21.70;99.90;;;;;;5017561;28;20033;-90
2021/08/02 09:58:47;;;;;;;1.85;1.00;;;21.90;99.90;;;;;;5020833;28;20477;-89
2021/08/02 10:01:15;;;;;;;4.95;1.13;;;21.60;99.90;;;;;;5022063;28;20065;-88
2021/08/02 10:03:42;;;;;;;2.40;1.00;;;21.90;99.90;;;;;;5022356;28;20088;-91
2021/08/02 10:06:10;;;;;;;5.18;1.00;;;21.90;99.90;;;;;;5022152;28;20057;-90
2021/08/02 10:08:36;;;;;;;1.33;0.70;;;22.00;99.90;;;;;;5025342;28;20021;-90
2021/08/02 10:11:02;;;;;;;2.88;1.00;;;21.80;99.90;;;;;;5042093;28;20113;-89
2021/08/02 10:13:31;;;;;;;1.42;0.90;;;22.10;99.90;;;;;;5031287;28;20016;-88
2021/08/02 10:15:59;;;;;;;5.75;0.90;;;22.50;99.90;;;;;;5039009;28;20021;-88
2021/08/02 10:18:27;;;;;;;1.55;0.98;;;22.70;99.90;;;;;;5030189;28;20029;-92
2021/08/02 10:21:10;;;;;;;2.58;1.10;;;22.00;99.90;;;;;;5022880;28;20455;-88
2021/08/02 10:23:38;;;;;;;2.95;1.00;;;22.00;99.90;;;;;;5022359;28;20029;-88
2021/08/02 10:26:17;;;;;;;1.58;0.77;;;22.60;99.90;;;;;;5022229;28;20022;-90
2021/08/02 10:28:52;;;;;;;4.75;1.02;;;22.50;99.90;;;;;;5021784;28;20021;-91
2021/08/02 10:31:19;;;;;;;1.77;0.73;;;22.70;99.90;;;;;;5022539;28;20033;-89
2021/08/02 10:33:45;;;;;;;1.63;0.80;;;22.90;99.90;;;;;;5022060;28;20029;-87
2021/08/02 10:36:15;;;;;;;2.08;1.02;;;22.40;99.90;;;;;;5020643;28;20473;-89
2021/08/02 10:38:46;;;;;;;1.50;0.82;;;22.20;99.90;;;;;;5020926;28;20046;-89
2021/08/02 10:41:33;;;;;;;2.38;0.80;;;22.30;99.90;;;;;;5039050;28;20022;-90
2021/08/02 10:44:13;;;;;;;1.50;0.65;;;22.60;99.90;;;;;;5021315;28;20009;-90
2021/08/02 10:46:40;;;;;;;1.98;0.73;;;23.60;99.90;;;;;;5021154;28;20550;-90
2021/08/02 10:49:11;;;;;;;2.08;0.80;;;23.60;99.90;;;;;;5021114;28;20033;-93
2021/08/02 10:51:46;;;;;;;1.27;0.77;;;24.10;99.90;;;;;;5039095;28;20018;-88
2021/08/02 10:54:15;;;;;;;2.45;0.90;;;24.00;99.90;;;;;;5021740;28;20025;-90
2021/08/02 10:56:48;;;;;;;4.40;0.90;;;23.40;99.90;;;;;;5020081;28;20021;-91
2021/08/02 10:59:19;;;;;;;2.75;0.88;;;23.00;99.90;;;;;;5020265;28;20045;-91
2021/08/02 11:01:50;;;;;;;3.38;0.73;;;23.50;99.90;;;;;;5021267;28;20026;-92
2021/08/02 11:04:19;;;;;;;1.42;0.60;;;23.30;99.90;;;;;;5020983;28;20033;-92
2021/08/02 11:06:47;;;;;;;0.95;0.60;;;23.70;99.90;;;;;;5021658;28;20025;-93
2021/08/02 11:09:13;;;;;;;2.50;0.77;;;23.60;99.90;;;;;;5021129;28;20021;-89
2021/08/02 11:11:39;;;;;;;2.80;0.73;;;23.30;99.90;;;;;;5021061;28;20445;-92
2021/08/02 11:14:12;;;;;;;1.30;0.60;;;24.10;99.90;;;;;;5021254;28;20022;-91
2021/08/02 11:16:51;;;;;;;2.40;0.80;;;24.10;99.90;;;;;;5021390;28;20032;-89
2021/08/02 11:19:21;;;;;;;2.15;0.90;;;24.40;99.90;;;;;;5021048;28;20424;-90
2021/08/02 11:22:08;;;;;;;2.08;0.90;;;24.40;99.90;;;;;;5020534;28;20029;-88
2021/08/02 11:24:36;;;;;;;1.60;0.80;;;23.20;99.90;;;;;;5020873;28;20358;-90
2021/08/02 11:27:05;;;;;;;4.05;0.80;;;22.80;99.90;;;;;;5020052;28;20108;-90
2021/08/02 11:29:38;;;;;;;1.40;0.70;;;22.60;99.90;;;;;;5019411;28;20021;-89
2021/08/02 11:32:10;;;;;;;1.50;0.85;;;22.20;99.90;;;;;;5019325;28;20025;-88
2021/08/02 11:34:41;;;;;;;5.97;1.10;;;21.90;99.90;;;;;;5037208;28;20018;-88
2021/08/02 11:37:15;;;;;;;1.17;0.80;;;21.70;99.90;;;;;;5019292;28;20017;-88
2021/08/02 11:39:46;;;;;;;1.75;0.82;;;21.60;99.90;;;;;;5030494;28;20098;-88
2021/08/02 11:42:16;;;;;;;1.92;0.90;;;21.60;99.90;;;;;;5039335;28;20071;-88
2021/08/02 11:44:52;;;;;;;2.63;0.82;;;21.40;99.90;;;;;;5039333;28;20053;-88
2021/08/02 11:47:23;;;;;;;2.05;0.85;;;21.50;99.90;;;;;;5057620;28;20028;-89
2021/08/02 11:49:51;;;;;;;1.95;0.98;;;22.00;99.90;;;;;;5056083;28;20124;-89
2021/08/02 11:52:19;;;;;;;1.52;0.90;;;21.80;99.90;;;;;;5039597;28;20005;-89
2021/08/02 11:54:56;;;;;;;2.42;0.80;;;21.50;99.90;;;;;;5039616;28;20017;-89
2021/08/02 11:57:22;;;;;;;1.85;1.00;;;21.40;99.90;;;;;;5039333;28;20021;-89
2021/08/02 11:59:59;;;;;;;1.60;0.90;;;22.20;99.90;;;;;;5038950;28;20032;-90
2021/08/02 12:02:33;;;;;;;2.17;1.02;;;22.20;99.90;;;;;;5038975;28;20029;-90
2021/08/02 12:04:59;;;;;;;1.80;1.00;;;22.10;99.90;;;;;;5038935;28;20171;-90
2021/08/02 12:07:27;;;;;;;2.42;0.82;;;22.00;99.90;;;;;;5039336;28;20071;-90
2021/08/02 12:09:54;;;;;;;4.40;1.00;;;22.80;99.90;;;;;;5039358;28;20053;-90
2021/08/02 12:12:24;;;;;;;1.95;0.90;;;22.80;99.90;;;;;;5039367;28;20024;-90
2021/08/02 12:14:50;;;;;;;1.83;0.82;;;22.80;99.90;;;;;;5039985;28;20574;-89
2021/08/02 12:17:16;;;;;;;2.25;1.00;;;22.70;99.90;;;;;;5042619;28;20397;-91
2021/08/02 12:19:52;;;;;;;5.07;1.00;;;23.40;99.90;;;;;;5045612;28;20056;-90
2021/08/02 12:22:20;;;;;;;2.35;1.00;;;24.70;99.90;;;;;;5045535;28;20056;-90
2021/08/02 12:24:58;;;;;;;1.45;0.68;;;25.90;99.90;;;;;;5071277;28;20032;-91
2021/08/02 12:27:25;;;;;;;2.70;0.73;;;26.10;99.90;;;;;;5047271;28;20032;-93
2021/08/02 12:30:11;;;;;;;1.10;0.65;;;26.00;99.90;;;;;;5058641;28;20021;-89
2021/08/02 12:32:44;;;;;;;2.35;1.05;;;26.60;99.90;;;;;;5057227;28;20492;-91
2021/08/02 12:35:15;;;;;;;3.30;0.90;;;26.70;99.90;;;;;;5039388;28;20021;-90
2021/08/02 12:37:42;;;;;;;3.90;0.90;;;26.10;99.90;;;;;;5056608;28;20469;-89
2021/08/02 12:40:16;;;;;;;2.33;0.80;;;24.90;99.90;;;;;;5038231;28;20488;-88
2021/08/02 12:42:44;;;;;;;3.58;1.00;;;25.30;99.90;;;;;;5039372;28;20516;-90
2021/08/02 12:45:11;;;;;;;1.35;0.70;;;25.80;99.90;;;;;;5038144;28;20032;-89
2021/08/02 12:47:37;;;;;;;4.10;0.80;;;25.80;99.90;;;;;;5038448;28;20060;-89
2021/08/02 12:50:05;;;;;;;2.00;0.93;;;26.00;99.90;;;;;;5037941;28;20044;-90
2021/08/02 12:52:32;;;;;;;4.75;0.98;;;27.00;99.90;;;;;;5037785;28;20025;-89
2021/08/02 12:54:59;;;;;;;4.75;1.00;;;26.00;99.90;;;;;;5037577;28;20027;-88